Time;durP1;ratioP1;P1;durP2;ratioP2;P2;SDS_P1;SDS_P2;PMS_P1;PMS_P2;Temp;Humidity;BMP_temperature;BMP_pressure;BME280_temperature;BME280_humidity;BME280_pressure;Samples;Min_cycle;Max_cycle;Signal;HPM_P1;HPM_P2
2021/12/26 00:01:13;;;;;;;;;1.00;1.00;;;;;16.37;49.95;100960.19;5054235;28;9008;-59
2021/12/26 00:03:41;;;;;;;;;0.00;0.00;;;;;16.33;50.12;100961.97;5054292;28;9138;-60
2021/12/26 00:06:12;;;;;;;;;0.33;0.33;;;;;16.28;50.06;100949.66;5054464;28;9113;-60
2021/12/26 00:08:42;;;;;;;;;1.00;1.00;;;;;16.31;49.61;100953.16;5052018;28;9046;-60
2021/12/26 00:11:13;;;;;;;;;1.33;1.33;;;;;16.31;50.06;100960.19;5054541;28;8961;-60
2021/12/26 00:13:39;;;;;;;;;1.67;1.67;;;;;16.32;50.00;100960.19;5054164;28;9134;-60
2021/12/26 00:16:05;;;;;;;;;0.33;0.33;;;;;16.33;50.01;100954.06;5054038;28;9096;-60
2021/12/26 00:18:31;;;;;;;;;1.00;1.00;;;;;16.29;49.99;100961.97;5052404;28;10173;-60
2021/12/26 00:20:56;;;;;;;;;1.00;0.00;;;;;16.26;50.06;100951.41;5054197;28;8754;-60
2021/12/26 00:23:22;;;;;;;;;0.67;0.67;;;;;16.28;49.79;100953.16;5053495;28;8888;-60
2021/12/26 00:25:48;;;;;;;;;0.67;0.67;;;;;16.34;49.89;100957.56;5053863;28;8813;-60
2021/12/26 00:28:14;;;;;;;;;1.00;1.00;;;;;16.34;49.80;100958.47;5054347;28;8827;-60
2021/12/26 00:30:40;;;;;;;;;0.00;0.00;;;;;16.32;49.95;100957.56;5051841;28;9272;-60
2021/12/26 00:33:09;;;;;;;;;0.67;0.67;;;;;16.32;49.89;100962.84;5053919;28;9022;-59
2021/12/26 00:35:34;;;;;;;;;1.00;1.00;;;;;16.28;50.05;100960.19;5053866;28;8820;-60
2021/12/26 00:38:00;;;;;;;;;1.00;1.00;;;;;16.26;49.87;100956.69;5053226;28;9109;-60
2021/12/26 00:40:26;;;;;;;;;1.00;1.00;;;;;16.28;49.92;100953.16;5052719;28;8785;-60
2021/12/26 00:42:56;;;;;;;;;2.00;2.00;;;;;16.28;49.75;100961.06;5052395;28;9113;-59
2021/12/26 00:45:22;;;;;;;;;1.00;1.00;;;;;16.29;49.78;100954.06;5053737;28;8985;-60
2021/12/26 00:47:47;;;;;;;;;1.00;1.00;;;;;16.24;49.77;100953.16;5053514;28;9237;-60
2021/12/26 00:50:16;;;;;;;;;0.00;0.00;;;;;16.28;49.92;100954.91;5051782;28;8924;-60
2021/12/26 00:52:42;;;;;;;;;1.00;1.00;;;;;16.28;49.94;100954.91;5052213;28;8794;-60
2021/12/26 00:55:15;;;;;;;;;1.00;1.00;;;;;16.20;49.57;100948.75;5053798;28;9167;-60
2021/12/26 00:57:40;;;;;;;;;1.00;1.00;;;;;16.29;49.48;100962.84;5052606;28;8782;-60
2021/12/26 01:00:12;;;;;;;;;0.00;0.00;;;;;16.26;49.57;100961.97;5052248;28;9067;-60
2021/12/26 01:02:38;;;;;;;;;0.67;0.67;;;;;16.25;49.58;100961.06;5053401;28;8809;-60
2021/12/26 01:05:06;;;;;;;;;1.00;1.00;;;;;16.31;49.38;100953.16;5052475;28;9089;-59
2021/12/26 01:07:50;;;;;;;;;0.00;0.00;;;;;16.31;49.20;100944.38;5053522;28;9615;-59
2021/12/26 01:10:19;;;;;;;;;1.00;1.00;;;;;16.26;49.43;100941.78;5051616;28;9030;-59
2021/12/26 01:12:48;;;;;;;;;0.33;0.33;;;;;16.22;49.28;100937.38;5052475;28;9259;-59
2021/12/26 01:15:13;;;;;;;;;0.33;0.33;;;;;16.21;49.58;100937.34;5053376;28;9261;-59
2021/12/26 01:17:43;;;;;;;;;0.33;0.33;;;;;16.25;49.57;100947.03;5053422;28;9268;-60
2021/12/26 01:20:13;;;;;;;;;0.00;0.00;;;;;16.23;49.52;100947.00;5050927;28;8799;-59
2021/12/26 01:22:39;;;;;;;;;0.00;0.00;;;;;16.25;49.53;100949.66;5053200;28;9128;-59
2021/12/26 01:25:05;;;;;;;;;1.00;1.00;;;;;16.23;49.52;100943.53;5052538;28;9089;-60
2021/12/26 01:27:31;;;;;;;;;1.67;1.67;;;;;16.25;49.36;100942.63;5052814;28;8781;-59
2021/12/26 01:29:59;;;;;;;;;2.00;2.00;;;;;16.21;49.33;100943.50;5051299;28;8958;-60
2021/12/26 01:32:27;;;;;;;;;1.33;1.33;;;;;16.24;49.17;100934.72;5051906;28;9511;-59
2021/12/26 01:34:53;;;;;;;;;1.00;1.00;;;;;16.24;49.30;100943.50;5052605;28;9171;-60
2021/12/26 01:37:18;;;;;;;;;1.00;1.00;;;;;16.23;49.46;100941.75;5052807;28;9770;-59
2021/12/26 01:39:46;;;;;;;;;1.00;1.00;;;;;16.25;49.23;100949.66;5050387;28;8817;-59
2021/12/26 01:42:11;;;;;;;;;1.00;1.00;;;;;16.27;49.27;100943.50;5052571;28;8846;-59
2021/12/26 01:44:40;;;;;;;;;0.00;0.00;;;;;16.24;49.40;100940.88;5052936;28;9021;-60
2021/12/26 01:47:05;;;;;;;;;1.00;1.00;;;;;16.20;49.25;100941.75;5051752;28;8786;-59
2021/12/26 01:49:32;;;;;;;;;2.00;2.00;;;;;16.28;49.00;100941.75;5051047;28;9056;-59
2021/12/26 01:52:04;;;;;;;;;1.00;1.00;;;;;16.24;49.17;100937.34;5052553;28;8782;-59
2021/12/26 01:54:59;;;;;;;;;2.00;2.00;;;;;16.25;49.12;100933.84;5051314;28;9022;-59
2021/12/26 01:57:24;;;;;;;;;1.33;1.33;;;;;16.24;49.27;100932.09;5052454;28;9034;-60
2021/12/26 01:59:50;;;;;;;;;0.33;0.33;;;;;16.22;49.30;100937.38;5050833;28;9056;-63
2021/12/26 02:02:15;;;;;;;;;1.00;1.00;;;;;16.21;49.07;100932.97;5051655;28;8792;-60
2021/12/26 02:04:41;;;;;;;;;0.33;0.33;;;;;16.24;49.16;100935.59;5052074;28;8809;-59
2021/12/26 02:07:09;;;;;;;;;1.67;1.67;;;;;16.27;49.00;100932.13;5051857;28;8796;-59
2021/12/26 02:09:35;;;;;;;;;0.00;0.00;;;;;16.23;48.81;100928.56;5052035;28;8798;-60
2021/12/26 02:12:01;;;;;;;;;1.00;1.00;;;;;16.24;49.08;100929.44;5050588;28;9112;-59
2021/12/26 02:14:27;;;;;;;;;2.00;1.00;;;;;16.21;49.14;100925.06;5051581;28;9114;-59
2021/12/26 02:16:55;;;;;;;;;1.00;1.00;;;;;16.15;49.07;100911.03;5051948;28;8782;-59
2021/12/26 02:19:21;;;;;;;;;1.33;1.33;;;;;16.24;48.78;100913.66;5051661;28;8829;-59
2021/12/26 02:24:53;;;;;;;;;1.00;1.00;;;;;16.15;48.90;100906.66;5052148;28;8778;-60
2021/12/26 02:27:31;;;;;;;;;1.00;1.00;;;;;16.18;49.03;100908.41;5051672;28;9064;-59
2021/12/26 02:30:00;;;;;;;;;0.00;0.00;;;;;16.14;48.91;100902.25;5051112;28;9194;-60
2021/12/26 02:32:27;;;;;;;;;0.00;0.00;;;;;16.19;49.06;100897.88;5051741;28;8930;-60
2021/12/26 02:34:52;;;;;;;;;1.00;1.00;;;;;16.21;48.67;100900.47;5051364;28;9159;-60
2021/12/26 02:37:17;;;;;;;;;0.00;0.00;;;;;16.17;48.94;100904.88;5051225;28;9191;-60
2021/12/26 02:39:43;;;;;;;;;2.00;1.00;;;;;16.17;48.87;100902.25;5051704;28;8758;-60
2021/12/26 02:42:08;;;;;;;;;1.00;1.00;;;;;16.11;48.75;100888.19;5051846;28;8789;-60
2021/12/26 02:44:33;;;;;;;;;1.00;1.00;;;;;16.14;49.03;100899.63;5050731;28;8769;-60
2021/12/26 02:46:58;;;;;;;;;1.00;0.00;;;;;16.13;48.89;100900.47;5051330;28;8903;-60
2021/12/26 02:49:25;;;;;;;;;1.00;1.00;;;;;16.16;49.01;100897.00;5050788;28;8781;-60
2021/12/26 02:51:51;;;;;;;;;1.33;0.00;;;;;16.20;48.78;100890.81;5051617;28;8820;-60
2021/12/26 02:54:17;;;;;;;;;1.00;1.00;;;;;16.16;48.69;100883.81;5051401;28;9190;-60
2021/12/26 02:56:42;;;;;;;;;1.67;1.67;;;;;16.19;48.81;100889.09;5050437;28;9942;-60
2021/12/26 02:59:07;;;;;;;;;0.00;0.00;;;;;16.13;48.75;100884.69;5051699;28;8889;-60
2021/12/26 03:01:33;;;;;;;;;1.00;1.00;;;;;16.15;48.85;100882.94;5051400;28;8806;-60
2021/12/26 03:03:59;;;;;;;;;0.67;0.67;;;;;16.13;48.64;100884.69;5050516;28;8789;-60
2021/12/26 03:06:32;;;;;;;;;0.00;0.00;;;;;16.16;48.67;100876.78;5051550;28;8801;-61
2021/12/26 03:08:59;;;;;;;;;2.00;1.00;;;;;16.19;48.43;100875.91;5051000;28;9163;-60
2021/12/26 03:11:25;;;;;;;;;0.67;0.67;;;;;16.21;48.50;100872.38;5050511;28;9159;-61
2021/12/26 03:13:50;;;;;;;;;1.67;1.00;;;;;16.16;48.68;100876.78;5050690;28;9159;-61
2021/12/26 03:16:16;;;;;;;;;1.00;1.00;;;;;16.16;48.57;100873.28;5050953;28;8888;-61
2021/12/26 03:18:41;;;;;;;;;0.33;0.33;;;;;16.17;48.47;100873.25;5050175;28;8917;-61
2021/12/26 03:21:07;;;;;;;;;1.00;1.00;;;;;16.13;48.61;100863.59;5051284;28;8886;-61
2021/12/26 03:23:32;;;;;;;;;1.67;1.67;;;;;16.14;48.45;100861.84;5051245;28;8792;-60
2021/12/26 03:26:01;;;;;;;;;1.00;1.00;;;;;16.16;48.40;100857.47;5049993;28;8814;-61
2021/12/26 03:28:27;;;;;;;;;0.33;0.33;;;;;16.14;48.42;100857.47;5051099;28;8789;-61
2021/12/26 03:30:54;;;;;;;;;0.33;0.33;;;;;16.18;48.37;100851.31;5050816;28;9091;-60
2021/12/26 03:33:21;;;;;;;;;1.00;1.00;;;;;16.11;48.47;100849.56;5050335;28;9094;-60
2021/12/26 03:35:47;;;;;;;;;1.00;1.00;;;;;16.15;48.40;100858.34;5050477;28;9281;-60
2021/12/26 03:38:13;;;;;;;;;1.00;1.00;;;;;16.11;48.36;100852.22;5051090;28;9176;-60
2021/12/26 03:40:38;;;;;;;;;1.00;1.00;;;;;16.11;48.46;100857.47;5050210;28;8908;-60
2021/12/26 03:43:05;;;;;;;;;2.00;1.00;;;;;16.17;48.64;100859.22;5050500;28;9351;-60
2021/12/26 03:45:30;;;;;;;;;1.00;1.00;;;;;16.13;48.18;100862.72;5050527;28;8786;-60
2021/12/26 03:47:58;;;;;;;;;0.67;0.67;;;;;16.12;48.55;100867.13;5050099;28;9493;-60
2021/12/26 03:50:29;;;;;;;;;0.67;0.67;;;;;16.12;48.57;100863.63;5050693;28;9517;-60
2021/12/26 03:52:58;;;;;;;;;0.00;0.00;;;;;16.12;48.60;100864.47;5049921;28;9661;-60
2021/12/26 03:55:25;;;;;;;;;0.33;0.00;;;;;16.13;48.28;100868.00;5050846;28;9118;-60
2021/12/26 03:57:51;;;;;;;;;0.00;0.00;;;;;16.15;48.29;100856.59;5050429;28;9174;-61
2021/12/26 04:00:16;;;;;;;;;1.00;1.00;;;;;16.10;48.57;100858.34;5050052;28;9242;-60
2021/12/26 04:02:45;;;;;;;;;1.00;1.00;;;;;16.09;48.44;100855.72;5050684;28;8778;-60
2021/12/26 04:05:13;;;;;;;;;0.00;0.00;;;;;16.08;48.43;100853.97;5050742;28;8765;-60
2021/12/26 04:07:38;;;;;;;;;0.00;0.00;;;;;16.10;48.51;100855.72;5049934;28;9221;-60
2021/12/26 04:10:06;;;;;;;;;0.33;0.33;;;;;16.15;48.44;100861.00;5050157;28;8981;-60
2021/12/26 04:12:36;;;;;;;;;1.00;1.00;;;;;16.14;48.40;100860.09;5050377;28;9516;-60
2021/12/26 04:15:09;;;;;;;;;0.00;0.00;;;;;16.17;48.35;100854.81;5049836;28;8997;-60
2021/12/26 04:17:35;;;;;;;;;1.00;0.00;;;;;16.12;48.36;100855.72;5050324;28;9185;-60
2021/12/26 04:20:01;;;;;;;;;1.00;1.00;;;;;16.09;48.34;100847.81;5050352;28;9094;-61
2021/12/26 04:22:28;;;;;;;;;0.33;0.33;;;;;16.06;48.43;100848.69;5049639;28;8782;-61
2021/12/26 04:24:53;;;;;;;;;1.00;1.00;;;;;16.09;48.36;100847.81;5050386;28;9027;-60
2021/12/26 04:27:19;;;;;;;;;0.67;0.67;;;;;16.07;48.38;100842.56;5051366;28;9035;-59
2021/12/26 04:29:44;;;;;;;;;2.00;2.00;;;;;16.08;48.31;100851.34;5052577;28;8801;-59
2021/12/26 04:32:09;;;;;;;;;0.00;0.00;;;;;16.10;48.36;100844.31;5054241;28;8761;-60
2021/12/26 04:34:35;;;;;;;;;0.00;0.00;;;;;16.12;48.25;100839.94;5054142;28;8769;-60
2021/12/26 04:37:00;;;;;;;;;0.67;0.00;;;;;16.12;48.26;100839.94;5052841;28;9670;-59
2021/12/26 04:39:25;;;;;;;;;0.33;0.33;;;;;16.07;48.17;100837.28;5053704;28;8801;-59
2021/12/26 04:41:51;;;;;;;;;1.67;0.67;;;;;16.04;48.63;100825.88;5053203;28;8848;-60
2021/12/26 04:44:16;;;;;;;;;1.00;1.00;;;;;16.07;48.52;100826.75;5054095;28;9513;-60
2021/12/26 04:46:41;;;;;;;;;0.00;0.00;;;;;16.09;48.35;100834.63;5053737;28;8809;-59
2021/12/26 04:49:07;;;;;;;;;2.00;2.00;;;;;16.07;48.39;100839.91;5053223;28;8769;-60
2021/12/26 04:51:32;;;;;;;;;2.00;1.00;;;;;16.04;48.27;100833.78;5053648;28;8782;-60
2021/12/26 04:53:58;;;;;;;;;1.33;0.33;;;;;16.11;48.27;100825.00;5053559;28;8790;-60
2021/12/26 04:56:23;;;;;;;;;1.67;1.33;;;;;16.14;48.31;100828.50;5053130;28;9362;-59
2021/12/26 04:58:49;;;;;;;;;1.00;1.00;;;;;16.10;48.49;100824.09;5053422;28;8786;-60
2021/12/26 05:01:14;;;;;;;;;1.00;1.00;;;;;16.13;48.06;100829.38;5053804;28;8792;-58
2021/12/26 05:03:40;;;;;;;;;0.00;0.00;;;;;16.10;47.95;100823.22;5052525;28;8794;-60
2021/12/26 05:06:06;;;;;;;;;0.00;0.00;;;;;16.10;47.94;100829.38;5053626;28;8801;-59
2021/12/26 05:08:32;;;;;;;;;1.00;0.00;;;;;16.04;48.30;100824.13;5053460;28;9020;-59
2021/12/26 05:10:57;;;;;;;;;0.00;0.00;;;;;16.06;48.29;100818.84;5052757;28;8889;-60
2021/12/26 05:13:28;;;;;;;;;1.00;1.00;;;;;16.09;48.07;100819.72;5053537;28;9557;-59
2021/12/26 05:15:56;;;;;;;;;0.00;0.00;;;;;16.05;48.13;100819.72;5053082;28;8777;-59
2021/12/26 05:18:21;;;;;;;;;0.00;0.00;;;;;16.02;48.24;100815.34;5052696;28;8923;-59
2021/12/26 05:20:47;;;;;;;;;0.33;0.33;;;;;16.05;48.21;100815.31;5052844;28;8926;-59
2021/12/26 05:23:12;;;;;;;;;1.00;0.67;;;;;16.08;48.11;100819.75;5053416;28;8797;-59
2021/12/26 05:25:37;;;;;;;;;0.00;0.00;;;;;16.08;48.14;100811.84;5052426;28;8805;-59
2021/12/26 05:28:03;;;;;;;;;1.33;1.33;;;;;16.04;48.19;100817.97;5052915;28;8770;-59
2021/12/26 05:30:29;;;;;;;;;0.33;0.33;;;;;16.05;48.13;100817.06;5053269;28;8801;-59
2021/12/26 05:32:54;;;;;;;;;0.00;0.00;;;;;16.06;48.17;100811.81;5051737;28;8782;-59
2021/12/26 05:35:20;;;;;;;;;1.00;1.00;;;;;16.05;48.37;100817.06;5052753;28;8816;-59
2021/12/26 05:37:47;;;;;;;;;1.00;1.00;;;;;16.04;48.30;100818.88;5052188;28;8790;-60
2021/12/26 05:40:14;;;;;;;;;1.00;1.00;;;;;16.06;48.14;100810.94;5052510;28;8802;-59
2021/12/26 05:42:40;;;;;;;;;1.00;1.00;;;;;16.03;48.25;100813.59;5052486;28;9160;-59
2021/12/26 05:45:07;;;;;;;;;0.67;0.67;;;;;16.02;48.05;100809.19;5052794;28;8936;-59
2021/12/26 05:47:33;;;;;;;;;1.33;1.33;;;;;16.06;48.22;100810.94;5052747;28;8806;-59
2021/12/26 05:49:59;;;;;;;;;0.00;0.00;;;;;16.03;48.05;100805.69;5052575;28;9357;-60
2021/12/26 05:52:24;;;;;;;;;1.00;1.00;;;;;16.07;48.10;100797.78;5052118;28;8847;-59
2021/12/26 05:54:50;;;;;;;;;1.00;1.00;;;;;16.06;47.97;100798.66;5052508;28;8997;-59
2021/12/26 05:57:16;;;;;;;;;1.00;1.00;;;;;16.04;48.00;100784.63;5052870;28;8804;-59
2021/12/26 05:59:42;;;;;;;;;1.00;1.00;;;;;16.05;48.03;100794.25;5051606;28;9552;-59
2021/12/26 06:02:08;;;;;;;;;1.00;1.00;;;;;16.01;48.18;100792.50;5052474;28;9085;-59
2021/12/26 06:04:34;;;;;;;;;0.67;0.67;;;;;16.02;48.29;100790.75;5052611;28;9007;-60
2021/12/26 06:06:59;;;;;;;;;0.33;0.33;;;;;15.98;48.21;100784.63;5051136;28;8835;-59
2021/12/26 06:09:25;;;;;;;;;1.00;1.00;;;;;15.99;48.27;100785.50;5052572;28;8773;-60
2021/12/26 06:11:53;;;;;;;;;2.67;1.67;;;;;15.88;47.92;100775.00;5052119;28;8784;-59
2021/12/26 06:14:19;;;;;;;;;1.00;1.00;;;;;16.06;48.00;100796.03;5051739;28;8847;-59
2021/12/26 06:16:44;;;;;;;;;0.00;0.00;;;;;16.05;48.12;100793.38;5051993;28;9112;-59
2021/12/26 06:19:09;;;;;;;;;0.00;0.00;;;;;16.03;47.91;100801.31;5051959;28;8777;-59
2021/12/26 06:21:35;;;;;;;;;0.33;0.33;;;;;16.04;48.16;100800.44;5051512;28;8766;-59
2021/12/26 06:24:00;;;;;;;;;1.00;1.00;;;;;15.98;47.74;100797.78;5051926;28;8769;-59
2021/12/26 06:26:27;;;;;;;;;1.00;1.00;;;;;15.95;47.83;100798.69;5051873;28;8944;-59
2021/12/26 06:28:52;;;;;;;;;0.00;0.00;;;;;15.93;48.08;100796.94;5050901;28;8772;-59
2021/12/26 06:31:18;;;;;;;;;0.00;0.00;;;;;15.95;47.69;100798.69;5051963;28;9802;-59
2021/12/26 06:33:44;;;;;;;;;0.00;0.00;;;;;15.97;48.23;100797.81;5051316;28;8766;-60
2021/12/26 06:36:12;;;;;;;;;0.00;0.00;;;;;16.00;48.22;100806.56;5050891;28;8836;-60
2021/12/26 06:38:39;;;;;;;;;1.00;1.00;;;;;15.98;48.03;100799.53;5051884;28;9145;-59
2021/12/26 06:41:15;;;;;;;;;1.00;0.00;;;;;16.03;47.91;100803.94;5051622;28;9833;-60
2021/12/26 06:43:43;;;;;;;;;1.00;1.00;;;;;16.01;47.96;100802.19;5050720;28;9228;-59
2021/12/26 06:46:09;;;;;;;;;0.00;0.00;;;;;16.01;47.99;100799.56;5051412;28;9065;-59
2021/12/26 06:48:39;;;;;;;;;0.33;0.33;;;;;15.99;47.99;100790.75;5050640;28;8922;-59
2021/12/26 06:51:05;;;;;;;;;0.00;0.00;;;;;15.99;47.93;100780.22;5051062;28;8762;-60
2021/12/26 06:53:30;;;;;;;;;0.00;0.00;;;;;16.00;48.04;100785.50;5051718;28;9004;-60
2021/12/26 06:55:59;;;;;;;;;1.00;1.00;;;;;16.06;48.01;100779.34;5050344;28;8782;-60
2021/12/26 06:58:24;;;;;;;;;0.33;0.33;;;;;15.99;47.99;100780.22;5051558;28;8766;-59
2021/12/26 07:00:49;;;;;;;;;0.00;0.00;;;;;15.93;47.96;100776.72;5051129;28;9108;-59
2021/12/26 07:03:15;;;;;;;;;0.00;0.00;;;;;15.93;47.97;100776.72;5050737;28;8794;-59
2021/12/26 07:05:40;;;;;;;;;0.67;0.00;;;;;15.93;48.29;100773.25;5050861;28;8790;-59
2021/12/26 07:08:07;;;;;;;;;1.00;1.00;;;;;15.95;48.40;100784.63;5051386;28;8781;-60
2021/12/26 07:10:33;;;;;;;;;1.00;1.00;;;;;15.95;48.30;100777.59;5050624;28;8762;-60
2021/12/26 07:13:01;;;;;;;;;0.00;0.00;;;;;15.98;48.01;100775.84;5050980;28;9184;-60
2021/12/26 07:15:26;;;;;;;;;0.00;0.00;;;;;15.97;48.20;100779.38;5051258;28;8796;-59
2021/12/26 07:17:52;;;;;;;;;0.67;0.67;;;;;15.93;48.04;100768.81;5049967;28;9091;-59
2021/12/26 07:20:18;;;;;;;;;0.00;0.00;;;;;16.00;48.04;100769.72;5051376;28;8843;-60
2021/12/26 07:22:45;;;;;;;;;0.00;0.00;;;;;15.92;48.02;100769.72;5050971;28;8762;-60
2021/12/26 07:25:11;;;;;;;;;0.00;0.00;;;;;15.92;48.14;100780.25;5050224;28;11296;-59
2021/12/26 07:27:36;;;;;;;;;0.33;0.33;;;;;15.95;48.20;100769.72;5051038;28;9132;-60
2021/12/26 07:30:07;;;;;;;;;2.33;1.00;;;;;16.01;48.01;100774.06;5050698;28;8762;-60
2021/12/26 07:32:33;;;;;;;;;0.00;0.00;;;;;15.93;48.20;100767.97;5050428;28;8789;-59
2021/12/26 07:34:58;;;;;;;;;0.00;0.00;;;;;15.91;48.06;100778.50;5050666;28;9065;-60
2021/12/26 07:37:25;;;;;;;;;0.33;0.33;;;;;15.94;48.17;100786.38;5051267;28;9559;-59
2021/12/26 07:39:50;;;;;;;;;1.00;1.00;;;;;15.92;48.26;100774.09;5049950;28;8769;-60
2021/12/26 07:42:15;;;;;;;;;0.00;0.00;;;;;15.92;47.98;100775.00;5051060;28;8981;-61
2021/12/26 07:44:41;;;;;;;;;1.00;1.00;;;;;15.98;47.79;100773.19;5050222;28;8784;-59
2021/12/26 07:47:06;;;;;;;;;0.00;0.00;;;;;15.97;47.81;100774.09;5050631;28;8794;-60
2021/12/26 07:49:32;;;;;;;;;0.00;0.00;;;;;15.93;47.97;100776.72;5050887;28;8900;-59
2021/12/26 07:51:58;;;;;;;;;0.67;0.67;;;;;15.93;48.02;100774.09;5049796;28;9540;-60
2021/12/26 07:54:24;;;;;;;;;0.33;0.33;;;;;15.95;48.09;100784.63;5050805;28;8776;-59
2021/12/26 07:56:51;;;;;;;;;1.00;1.00;;;;;15.95;48.04;100789.91;5050386;28;9160;-60
2021/12/26 07:59:16;;;;;;;;;0.00;0.00;;;;;15.90;48.20;100789.91;5049657;28;9127;-59
2021/12/26 08:01:42;;;;;;;;;0.67;0.67;;;;;15.93;47.81;100796.94;5052528;28;8844;-60
2021/12/26 08:04:09;;;;;;;;;0.67;0.00;;;;;15.93;47.97;100791.66;5054824;28;8971;-60
2021/12/26 08:06:34;;;;;;;;;0.00;0.00;;;;;15.97;47.65;100795.16;5053846;28;9670;-60
2021/12/26 08:09:02;;;;;;;;;0.00;0.00;;;;;15.91;48.19;100788.13;5054417;28;9020;-59
2021/12/26 08:11:30;;;;;;;;;0.00;0.00;;;;;15.93;47.95;100787.25;5054509;28;8858;-58
2021/12/26 08:13:55;;;;;;;;;0.67;0.67;;;;;15.92;48.05;100775.00;5052440;28;9205;-59
2021/12/26 08:16:21;;;;;;;;;0.00;0.00;;;;;15.93;47.74;100781.97;5054415;28;9101;-59
2021/12/26 08:18:49;;;;;;;;;2.00;1.00;;;;;15.93;48.06;100783.78;5054127;28;8766;-59
2021/12/26 08:21:21;;;;;;;;;0.00;0.00;;;;;15.91;47.89;100773.22;5054007;28;8769;-59
2021/12/26 08:23:47;;;;;;;;;0.00;0.00;;;;;15.94;47.86;100780.22;5053938;28;9826;-59
2021/12/26 08:26:12;;;;;;;;;0.67;0.67;;;;;15.93;48.03;100778.50;5054120;28;9101;-59
2021/12/26 08:28:38;;;;;;;;;1.00;1.00;;;;;15.92;47.91;100772.34;5053680;28;8782;-60
2021/12/26 08:31:03;;;;;;;;;1.00;1.00;;;;;15.95;48.00;100769.72;5053956;28;8761;-60
2021/12/26 08:33:29;;;;;;;;;0.00;0.00;;;;;15.95;48.03;100774.09;5054393;28;8966;-60
2021/12/26 08:35:54;;;;;;;;;0.67;0.67;;;;;15.93;47.81;100766.19;5053127;28;8817;-60
2021/12/26 08:38:21;;;;;;;;;0.67;0.00;;;;;15.95;47.97;100768.84;5054125;28;8778;-59
2021/12/26 08:40:48;;;;;;;;;0.00;0.00;;;;;15.99;47.76;100770.59;5053835;28;8797;-60
2021/12/26 08:43:15;;;;;;;;;1.00;1.00;;;;;15.96;48.04;100778.50;5053428;28;9059;-60
2021/12/26 08:45:40;;;;;;;;;0.00;0.00;;;;;15.92;47.82;100779.38;5053703;28;9185;-60
2021/12/26 08:48:05;;;;;;;;;0.00;0.00;;;;;15.93;47.85;100781.13;5053220;28;9027;-60
2021/12/26 08:50:31;;;;;;;;;0.00;0.00;;;;;15.93;47.62;100781.97;5054032;28;8785;-60
2021/12/26 08:52:56;;;;;;;;;0.00;0.00;;;;;15.95;47.87;100785.50;5053504;28;8777;-59
2021/12/26 08:55:24;;;;;;;;;1.00;1.00;;;;;15.99;47.62;100780.22;5053029;28;8790;-60
2021/12/26 08:57:50;;;;;;;;;1.00;1.00;;;;;15.95;47.73;100784.63;5053471;28;8904;-60
2021/12/26 09:00:17;;;;;;;;;0.00;0.00;;;;;15.92;47.85;100784.63;5053633;28;9237;-60
2021/12/26 09:02:43;;;;;;;;;0.33;0.33;;;;;15.95;47.78;100788.16;5052726;28;9082;-60
2021/12/26 09:05:09;;;;;;;;;0.00;0.00;;;;;15.98;47.87;100791.63;5053548;28;9232;-59
2021/12/26 09:07:34;;;;;;;;;1.00;1.00;;;;;15.99;47.60;100796.03;5051452;28;9212;-59
2021/12/26 09:10:03;;;;;;;;;0.67;0.67;;;;;15.99;47.44;100790.75;5052419;28;10016;-59
2021/12/26 09:12:28;;;;;;;;;0.00;0.00;;;;;16.01;47.34;100795.13;5052989;28;8786;-60
2021/12/26 09:14:54;;;;;;;;;1.00;1.00;;;;;15.98;47.42;100787.25;5053123;28;9201;-59
2021/12/26 09:17:19;;;;;;;;;0.33;0.00;;;;;15.97;47.52;100785.53;5050656;28;8805;-59
2021/12/26 09:19:47;;;;;;;;;0.00;0.00;;;;;16.00;47.44;100784.63;5053085;28;8889;-59
2021/12/26 09:22:15;;;;;;;;;0.33;0.33;;;;;15.94;47.72;100782.88;5053609;28;8758;-59
2021/12/26 09:24:41;;;;;;;;;1.00;1.00;;;;;15.97;47.53;100784.63;5052616;28;9176;-59
2021/12/26 09:27:07;;;;;;;;;0.00;0.00;;;;;15.98;47.37;100784.63;5051260;28;9126;-59
2021/12/26 09:29:32;;;;;;;;;0.00;0.00;;;;;15.98;47.64;100789.88;5053398;28;9121;-59
2021/12/26 09:31:57;;;;;;;;;0.00;0.00;;;;;15.98;47.24;100786.38;5052287;28;8766;-59
2021/12/26 09:34:24;;;;;;;;;0.00;0.00;;;;;15.94;47.75;100791.66;5053386;28;8762;-60
2021/12/26 09:36:52;;;;;;;;;1.00;1.00;;;;;16.01;47.44;100791.66;5050551;28;8845;-59
2021/12/26 09:39:18;;;;;;;;;0.00;0.00;;;;;15.98;47.49;100789.88;5052288;28;9013;-59
2021/12/26 09:41:43;;;;;;;;;2.00;2.00;;;;;15.97;47.37;100788.16;5052678;28;9007;-60
2021/12/26 09:44:09;;;;;;;;;0.00;0.00;;;;;15.93;47.59;100786.41;5053158;28;8785;-59
2021/12/26 09:46:38;;;;;;;;;0.00;0.00;;;;;15.94;47.33;100785.50;5050713;28;9650;-60
2021/12/26 09:49:03;;;;;;;;;0.00;0.00;;;;;16.00;47.63;100782.88;5052432;28;8792;-59
2021/12/26 09:51:29;;;;;;;;;1.33;1.33;;;;;15.99;47.34;100785.50;5052552;28;9017;-60
2021/12/26 09:53:55;;;;;;;;;1.00;1.00;;;;;16.04;47.20;100778.47;5052760;28;8774;-59
2021/12/26 09:56:20;;;;;;;;;1.00;1.00;;;;;15.96;47.32;100770.59;5051517;28;8786;-58
2021/12/26 09:59:04;;;;;;;;;0.67;0.67;;;;;15.97;47.19;100768.84;5050905;28;8794;-61
2021/12/26 10:01:41;;;;;;;;;0.67;0.67;;;;;15.95;47.08;100760.94;5052332;28;8786;-60
2021/12/26 10:04:09;;;;;;;;;0.00;0.00;;;;;15.98;47.04;100758.28;5052595;28;9085;-59
2021/12/26 10:06:34;;;;;;;;;0.33;0.33;;;;;15.98;47.53;100754.78;5050400;28;9248;-59
2021/12/26 10:09:02;;;;;;;;;0.00;0.00;;;;;15.98;47.38;100755.66;5052386;28;9092;-59
2021/12/26 10:11:32;;;;;;;;;0.33;0.33;;;;;15.97;47.39;100745.16;5052564;28;8781;-59
2021/12/26 10:14:06;;;;;;;;;0.00;0.00;;;;;15.97;47.29;100745.16;5051594;28;9163;-60
2021/12/26 10:16:37;;;;;;;;;0.67;0.67;;;;;16.00;47.13;100743.38;5050646;28;9308;-59
2021/12/26 10:19:04;;;;;;;;;1.00;1.00;;;;;15.97;47.44;100742.50;5051503;28;9164;-59
2021/12/26 10:21:56;;;;;;;;;1.00;1.00;;;;;15.98;47.27;100733.72;5051477;28;9192;-59
2021/12/26 10:24:28;;;;;;;;;1.00;0.00;;;;;15.95;47.15;100724.94;5050040;28;9433;-60
2021/12/26 10:27:00;;;;;;;;;0.33;0.33;;;;;15.94;47.34;100711.78;5049632;28;9210;-59
2021/12/26 10:29:32;;;;;;;;;1.00;1.00;;;;;15.92;47.50;100710.91;5050921;28;9356;-60
2021/12/26 10:32:03;;;;;;;;;1.00;1.00;;;;;15.97;47.33;100719.69;5051847;28;9167;-60
2021/12/26 10:34:36;;;;;;;;;2.00;1.00;;;;;15.95;47.20;100703.00;5051609;28;9163;-58
2021/12/26 10:37:05;;;;;;;;;0.00;0.00;;;;;15.95;47.28;100706.53;5050032;28;9293;-61
2021/12/26 10:39:39;;;;;;;;;0.67;0.67;;;;;16.01;47.39;100702.97;5051886;28;9255;-60
2021/12/26 10:42:07;;;;;;;;;0.00;0.00;;;;;15.98;47.30;100700.34;5051092;28;9108;-59
2021/12/26 10:44:34;;;;;;;;;1.33;1.00;;;;;15.98;47.29;100703.00;5051774;28;9365;-59
2021/12/26 10:47:07;;;;;;;;;1.00;1.00;;;;;15.98;47.29;100702.09;5049878;28;9254;-59
2021/12/26 10:49:43;;;;;;;;;0.33;0.33;;;;;15.95;47.41;100700.38;5050937;28;9260;-60
2021/12/26 10:52:39;;;;;;;;;1.00;1.00;;;;;15.99;47.29;100693.34;5051928;28;9256;-59
2021/12/26 10:55:15;;;;;;;;;1.67;1.67;;;;;15.98;47.18;100689.81;5033222;28;9229;-59
2021/12/26 10:57:47;;;;;;;;;1.00;1.00;;;;;16.04;47.32;100688.94;5049761;28;10035;-60
2021/12/26 11:00:17;;;;;;;;;0.00;0.00;;;;;16.04;47.23;100687.19;5051733;28;9222;-61
2021/12/26 11:02:50;;;;;;;;;2.00;1.00;;;;;16.08;47.64;100690.69;5050048;28;9321;-61
2021/12/26 11:05:28;;;;;;;;;2.33;1.00;;;;;16.12;48.21;100681.91;5051519;28;9310;-61
2021/12/26 11:07:59;;;;;;;;;2.00;2.00;;;;;16.21;49.45;100684.47;5049257;28;9383;-61
2021/12/26 11:10:44;;;;;;;;;4.75;4.25;;;;;16.26;50.78;100682.72;5050625;28;9400;-61
2021/12/26 11:13:31;;;;;;;;;4.00;2.25;;;;;16.33;52.25;100679.16;5051136;28;9418;-60
2021/12/26 11:15:59;;;;;;;;;5.25;4.50;;;;;16.38;52.51;100669.50;5050196;28;9462;-60
2021/12/26 11:18:25;;;;;;;;;5.75;5.75;;;;;16.44;53.52;100670.34;5049291;28;9502;-60
2021/12/26 11:20:52;;;;;;;;;8.50;4.00;;;;;16.44;54.23;100670.34;5050874;28;9415;-60
2021/12/26 11:23:21;;;;;;;;;5.00;4.00;;;;;16.42;55.01;100663.31;5050123;28;9456;-60
2021/12/26 11:26:07;;;;;;;;;5.25;3.75;;;;;16.37;56.58;100673.00;5050604;28;9388;-60
2021/12/26 11:28:45;;;;;;;;;4.00;3.25;;;;;16.37;56.02;100679.16;5049409;28;9396;-61
2021/12/26 11:31:16;;;;;;;;;4.00;4.00;;;;;16.33;56.44;100679.16;5050409;28;9406;-60
2021/12/26 11:34:04;;;;;;;;;6.25;5.25;;;;;16.34;56.55;100676.53;5048905;28;9470;-59
2021/12/26 11:36:32;;;;;;;;;4.75;4.75;;;;;16.36;56.49;100677.38;5049612;28;9506;-60
2021/12/26 11:38:59;;;;;;;;;4.50;4.00;;;;;16.40;56.16;100675.63;5049165;28;9450;-60